Benjamin Constant, Brazil
Current Conditions -  °F | °C
As of 11:00 AM on Saturday 25 Oct 2014 (Local Time) from SBTT Reporting Station
Scattered Clouds Scattered Clouds  
Wind Chill: 86°   Ceiling: Unl
Heat Index: 95°   Visibility: 6mi
Dew Point: 75°   Wind: 3mph
Humidity: 70%   Direction: 110°ESE
Pressure: 29.88"   Gusts: NA
Location:  4.38°S, 70.03°W
Report Text: SBTT 251500Z 11003KT 9999 SCT017 30/24 Q1012
Loading
Personal Weather Stations






























Interactive Weather Map
Tropical Storm Tracking
New forecast layout! Learn more

10-Day Weather Forecast

Advertisements
Track Severe Weather on mobile